Sao Jorge, Brazil
Current Conditions -  °F | °C
As of 10:00 AM on Tuesday 27 Jan 2015 (Local Time) from SBCO Reporting Station
Clear Clear  
Wind Chill: 84°   Ceiling: Unl
Heat Index: 90°   Visibility: 6mi
Dew Point: 72°   Wind: 5mph
Humidity: 66%   Direction: 350°N
Pressure: 29.85"   Gusts: NA
Location:  28.5°S, 51.7°W
Report Text: SBCO 271200Z 35004KT CAVOK 29/22 Q1011
Loading
Personal Weather Stations






























Interactive Weather Map New forecast layout! Learn more

10-Day Weather Forecast

Advertisements
Track Severe Weather on mobile